Strona główna
METAR-TAF:

METAR-TAF

Lotnisko :

Port lotniczy Gran Canaria

Gran Canaria, Hiszpania

Szerokość geograficzna: 27-56N, Długość geograficzna: 015-23W, wysokość: 23 m

Aktualna obserwacja pogody

Raport powstał 25 minut temu, godzina 21:00 UTC
Wiatr 20 kt od północ
Temperatura 23°C
Wilgotność 73%
Ciśnienie 1017 hPa
Widzialność 10 km lub więcej
Rozproszone chmury na wysokości 2300 ft

METAR: GCLP 172100Z 36020KT 9999 SCT023 23/18 Q1017 NOSIG

czas: 22:25 (21:25 UTC)

Prognoza

Raport powstał 1 godzina i 25 minut temu, godzina 20:00 UTC
Prognoza ważna od 17 godzina 21 UTC do 18 godzina 21 UTC
Wiatr 20 kt od północ
Widzialność 10 km lub więcej
Przerywane chmury na wysokości 3000 ft
Prawdopodobieństwo 40% :
Przejściowo
od 17 godzina 21 UTC do 18 godzina 01 UTC
Wiatr 20 kt od północ w porywach dochodzący do 30 kt

TAF: GCLP 172000Z 1721/1821 36020KT 9999 BKN030 TX26/1815Z TN21/1805Z PROB40 TEMPO 1721/1801 36020G30KT

Obserwacja i prognoza pogody dla ponad 4000 lotnisk (raport METAR i TAF).

Dostępne stacje oznaczono żółtymi i czerwonymi punktami na mapie.

Najedź kursorem aby zobaczyć nazwę stacji.

Kliknij aby zobaczyć obserwacje i prognozy pogody.

Aby zmienić mapę: kliknij na zielony przycisk z czarnym krzyżykiem, aby powiększyć; na zielony przycisk z myślnikiem, aby pomniejszyć; na zielone strzałki, aby przejść do map sąsiednich.


METAR-TAF: